Flight Track Log - Related Links

Times and Time Zones

All times are in EDT time to prevent confusion due to time zone crossing. See the UAL33 flight status page for this flight to view local times or setup timezone preferences in your user account.

Time Position Orientation Groundspeed Altitude Reporting Facility
EDT Latitude Longitude Course Direction KTS MPH feet Rate Location/Type
Tue 05:32:38 PM 29.9448 -95.3467 167° South 182 209 1,500  Level FlightAware ADS-B
Tue 05:32:41 PM 29.9426 -95.3484 214° Southwest 188 216 1,600 1,500 Climbing FlightAware ADS-B
Tue 05:32:46 PM 29.9396 -95.3520 226° Southwest 197 227 1,700 2,000 Climbing FlightAware ADS-B
Tue 05:32:50 PM 29.9376 -95.3556 237° Southwest 201 231 1,900 2,250 Climbing FlightAware ADS-B
Tue 05:32:54 PM 29.9360 -95.3598 246° West 207 238 2,000 750 Climbing FlightAware ADS-B
Tue 05:32:58 PM 29.9352 -95.3632 255° West 218 251 2,000 750 Level FlightAware ADS-B
Tue 05:33:02 PM 29.9347 -95.3687 264° West 227 261 2,100 2,250 Climbing FlightAware ADS-B
Tue 05:33:06 PM 29.9349 -95.3737 273° West 232 267 2,300 2,250 Climbing FlightAware ADS-B
Tue 05:33:10 PM 29.9357 -95.3784 281° West 238 274 2,400 2,250 Climbing FlightAware ADS-B
Tue 05:33:14 PM 29.9374 -95.3841 289° West 246 283 2,600 1,800 Climbing FlightAware ADS-B
Tue 05:33:20 PM 29.9403 -95.3902 299° West 256 295 2,700 1,800 Climbing FlightAware ADS-B
Tue 05:33:24 PM 29.9438 -95.3952 309° West 262 302 2,900 2,250 Climbing FlightAware ADS-B
Tue 05:33:28 PM 29.9468 -95.3986 316° Northwest 268 308 3,000 2,000 Climbing FlightAware ADS-B
Tue 05:33:33 PM 29.9519 -95.4028 324° Northwest 274 315 3,200 2,250 Climbing FlightAware ADS-B
Tue 05:33:36 PM 29.9560 -95.4054 331° Northwest 279 321 3,300 1,714 Climbing FlightAware ADS-B
Tue 05:33:40 PM 29.9600 -95.4075 336° Northwest 280 322 3,400 2,000 Climbing FlightAware ADS-B
Tue 05:33:45 PM 29.9661 -95.4094 345° North 283 326 3,600 2,250 Climbing FlightAware ADS-B
Tue 05:33:48 PM 29.9705 -95.4105 348° North 285 328 3,700 1,333 Climbing FlightAware ADS-B
Tue 05:33:54 PM 29.9781 -95.4119 351° North 286 329 3,800 522 Climbing FlightAware ADS-B
Tue 05:34:11 PM 30.0002 -95.4151 353° North 287 330 3,900 1,340 Climbing FlightAware ADS-B
Tue 05:35:28 PM 30.1042 -95.4297 353° North 299 344 5,900 2,158 Climbing FlightAware ADS-B
Tue 05:36:05 PM 30.1552 -95.4368 353° North 305 351 8,000 3,447 Climbing FlightAware ADS-B
Tue 05:36:15 PM 30.1691 -95.4373 360° North 306 352 8,600 3,353 Climbing FlightAware ADS-B
Tue 05:36:39 PM 30.2030 -95.4353 North 310 357 9,900 2,267 Climbing FlightAware ADS-B
Tue 05:37:45 PM 30.3104 -95.4265 North 385 443 12,000 1,864 Climbing FlightAware ADS-B
Tue 05:38:22 PM 30.3791 -95.4226 North 425 489 13,100 2,100 Climbing FlightAware ADS-B
Tue 05:39:25 PM 30.5109 -95.4180 North 464 534 15,500 2,489 Climbing FlightAware ADS-B
Tue 05:39:56 PM 30.5773 -95.4165 North 470 541 17,000 2,632 Climbing FlightAware ADS-B
Tue 05:40:22 PM 30.6353 -95.4270 343° North 483 556 18,000 2,471 Climbing FlightAware ADS-B
Tue 05:40:30 PM 30.6508 -95.4339 339° North 485 558 18,400 2,842 Climbing FlightAware ADS-B
Tue 05:40:41 PM 30.6741 -95.4488 331° Northwest 489 563 18,900 2,809 Climbing FlightAware ADS-B
Tue 05:42:51 PM 30.8870 -95.6905 315° West 497 572 25,000 2,984 Climbing FlightAware ADS-B
Tue 05:43:52 PM 30.9810 -95.8003 315° West 478 550 28,400 3,033 Climbing FlightAware ADS-B
Tue 05:44:22 PM 31.0283 -95.8553 315° West 474 545 29,600 2,066 Climbing FlightAware ADS-B
Tue 05:44:53 PM 31.0762 -95.9117 315° West 482 555 30,500 1,304 Climbing FlightAware ADS-B
Tue 05:45:08 PM 31.1025 -95.9398 321° Northwest 492 566 30,600 429 Climbing FlightAware ADS-B
Tue 05:45:21 PM 31.1255 -95.9572 327° Northwest 497 572 30,700 714 Climbing FlightAware ADS-B
Tue 05:45:50 PM 31.1897 -95.9837 346° North 509 586 31,100 1,220 Climbing FlightAware ADS-B
Tue 05:46:20 PM 31.2605 -95.9998 349° North 513 590 31,900 1,532 Climbing FlightAware ADS-B
Tue 05:48:58 PM 31.6306 -96.0868 349° North 511 588 35,900 1,483 Climbing FlightAware ADS-B
Tue 05:50:47 PM 31.8830 -96.1461 349° North 501 577 38,500 1,022 Climbing FlightAware ADS-B
Tue 05:52:00 PM 32.0466 -96.1849 349° North 496 571 39,000 229 Climbing FlightAware ADS-B
Tue 05:52:58 PM 32.1778 -96.2138 351° North 494 568 39,000  Level FlightAware ADS-B
Tue 05:54:13 PM 32.3500 -96.2200 359° North 493 567 39,000  Level FlightAware ADS-B
Tue 05:54:43 PM 32.4120 -96.2210 359° North 492 566 39,000  Level FlightAware ADS-B
Tue 05:55:21 PM 32.5040 -96.2220 359° North 492 566 39,000  Level FlightAware ADS-B
Tue 05:56:10 PM 32.6130 -96.2230 360° North 494 568 39,000  Level FlightAware ADS-B
Tue 05:56:51 PM 32.7090 -96.2240 359° North 494 568 39,000  Level FlightAware ADS-B
Tue 05:58:12 PM 32.8930 -96.2260 360° North 492 566 39,000  Level FlightAware ADS-B
Tue 05:58:54 PM 32.9890 -96.2270 359° North 494 568 39,000  Level FlightAware ADS-B
Tue 05:59:38 PM 33.0900 -96.2290 359° North 495 570 39,000  Level FlightAware ADS-B
Tue 06:00:18 PM 33.1830 -96.2300 359° North 495 570 39,000  Level FlightAware ADS-B
Tue 06:01:04 PM 33.2880 -96.2310 360° North 495 570 39,000  Level FlightAware ADS-B
Tue 06:01:44 PM 33.3810 -96.2320 359° North 495 570 39,000  Level FlightAware ADS-B
Tue 06:02:25 PM 33.4710 -96.2330 359° North 492 566 39,000  Level FlightAware ADS-B
Tue 06:02:54 PM 33.5390 -96.2240 North 496 571 39,000  Level FlightAware ADS-B
Tue 06:03:36 PM 33.6250 -96.1740 26° Northeast 503 579 39,000  Level FlightAware ADS-B
Tue 06:04:16 PM 33.7050 -96.1160 31° Northeast 501 577 39,000  Level FlightAware ADS-B
Tue 06:05:00 PM 33.7910 -96.0540 31° Northeast 500 575 39,000  Level FlightAware ADS-B
Tue 06:05:42 PM 33.8770 -95.9920 31° Northeast 499 574 39,000  Level FlightAware ADS-B
Tue 06:06:25 PM 33.9600 -95.9310 31° Northeast 500 575 39,000  Level FlightAware ADS-B
Tue 06:07:16 PM 34.0610 -95.8580 31° Northeast 499 574 39,000  Level FlightAware ADS-B
Tue 06:07:59 PM 34.1460 -95.7960 31° Northeast 499 574 39,000  Level FlightAware ADS-B
Tue 06:08:44 PM 34.2330 -95.7320 31° Northeast 498 573 39,000  Level FlightAware ADS-B
Tue 06:09:24 PM 34.3140 -95.6730 31° Northeast 498 573 39,000  Level FlightAware ADS-B
Tue 06:10:20 PM 34.4030 -95.6070 31° Northeast 494 568 39,000  Level FlightAware ADS-B
Tue 06:10:56 PM 34.4950 -95.5400 31° Northeast 492 566 39,000  Level FlightAware ADS-B
Tue 06:11:47 PM 34.5670 -95.4860 32° Northeast 488 562 39,000  Level FlightAware ADS-B
Tue 06:12:24 PM 34.6640 -95.4150 31° Northeast 484 557 39,000  Level FlightAware ADS-B
Tue 06:13:10 PM 34.7510 -95.3500 32° Northeast 484 557 39,000  Level FlightAware ADS-B
Tue 06:13:53 PM 34.8310 -95.2900 32° Northeast 483 556 39,000  Level FlightAware ADS-B
Tue 06:14:34 PM 34.9080 -95.2320 32° Northeast 484 557 39,000  Level FlightAware ADS-B
Tue 06:15:16 PM 34.9810 -95.1790 31° Northeast 484 557 39,000  Level FlightAware ADS-B
Tue 06:15:51 PM 35.0380 -95.1370 31° Northeast 484 557 39,000  Level FlightAware ADS-B
Tue 06:16:38 PM 35.1470 -95.0530 32° Northeast 487 560 39,000  Level FlightAware ADS-B
Tue 06:17:22 PM 35.2320 -94.9890 32° Northeast 486 559 39,000  Level FlightAware ADS-B
Tue 06:18:02 PM 35.3080 -94.9310 32° Northeast 487 560 39,000  Level FlightAware ADS-B
Tue 06:18:48 PM 35.3970 -94.8640 32° Northeast 487 560 39,000  Level FlightAware ADS-B
Tue 06:19:28 PM 35.4750 -94.8060 31° Northeast 488 562 39,000  Level FlightAware ADS-B
Tue 06:20:08 PM 35.5500 -94.7480 32° Northeast 488 562 39,000  Level FlightAware ADS-B
Tue 06:20:52 PM 35.6360 -94.6820 32° Northeast 485 558 39,000  Level FlightAware ADS-B
Tue 06:21:32 PM 35.7120 -94.6240 32° Northeast 484 557 39,000  Level FlightAware ADS-B
Tue 06:22:16 PM 35.7950 -94.5610 32° Northeast 484 557 39,000  Level FlightAware ADS-B
Tue 06:22:58 PM 35.8750 -94.4990 32° Northeast 485 558 39,000  Level FlightAware ADS-B
Tue 06:23:39 PM 35.9540 -94.4380 32° Northeast 486 559 39,000  Level FlightAware ADS-B
Tue 06:24:19 PM 36.0300 -94.3800 32° Northeast 486 559 39,000  Level FlightAware ADS-B
Tue 06:25:03 PM 36.1120 -94.3170 32° Northeast 486 559 39,000  Level FlightAware ADS-B
Tue 06:25:57 PM 36.2170 -94.2350 32° Northeast 486 559 39,000  Level FlightAware ADS-B
Tue 06:26:43 PM 36.3050 -94.1670 32° Northeast 485 558 39,000  Level FlightAware ADS-B
Tue 06:27:23 PM 36.3800 -94.1080 32° Northeast 484 557 39,000  Level FlightAware ADS-B
Tue 06:28:07 PM 36.4650 -94.0420 32° Northeast 484 557 39,000  Level FlightAware ADS-B
Tue 06:28:47 PM 36.5410 -93.9820 32° Northeast 485 558 39,000  Level FlightAware ADS-B
Tue 06:29:29 PM 36.6190 -93.9210 32° Northeast 485 558 39,000  Level FlightAware ADS-B
Tue 06:30:05 PM 36.6890 -93.8660 32° Northeast 484 557 39,000  Level FlightAware ADS-B
Tue 06:30:53 PM 36.7790 -93.7950 32° Northeast 483 556 39,000  Level FlightAware ADS-B
Tue 06:31:33 PM 36.8540 -93.7350 33° Northeast 483 556 39,000  Level FlightAware ADS-B
Tue 06:32:06 PM 36.9160 -93.6860 32° Northeast 483 556 39,000  Level FlightAware ADS-B
Tue 06:32:47 PM 36.9950 -93.6230 32° Northeast 484 557 39,000  Level FlightAware ADS-B
Tue 06:33:29 PM 37.0750 -93.5590 33° Northeast 486 559 39,000  Level FlightAware ADS-B
Tue 06:34:07 PM 37.1450 -93.5030 33° Northeast 489 563 39,000  Level FlightAware ADS-B
Tue 06:34:53 PM 37.2340 -93.4320 32° Northeast 490 564 39,000  Level FlightAware ADS-B
Tue 06:35:33 PM 37.3110 -93.3700 33° Northeast 490 564 39,000  Level FlightAware ADS-B
Tue 06:36:17 PM 37.3940 -93.2990 34° Northeast 489 563 39,000  Level FlightAware ADS-B
Tue 06:36:59 PM 37.4690 -93.2290 37° Northeast 492 566 39,000  Level FlightAware ADS-B
Tue 06:37:41 PM 37.5470 -93.1580 36° Northeast 494 568 39,000  Level FlightAware ADS-B
Tue 06:38:16 PM 37.6070 -93.1020 36° Northeast 497 572 39,000  Level FlightAware ADS-B
Tue 06:39:02 PM 37.6960 -93.0190 36° Northeast 499 574 39,000  Level FlightAware ADS-B
Tue 06:39:45 PM 37.7760 -92.9450 36° Northeast 501 577 39,000  Level FlightAware ADS-B
Tue 06:40:27 PM 37.8550 -92.8710 36° Northeast 503 579 39,000  Level FlightAware ADS-B
Tue 06:41:11 PM 37.9370 -92.7940 37° Northeast 503 579 39,000  Level FlightAware ADS-B
Tue 06:41:53 PM 38.0150 -92.7220 36° Northeast 501 577 39,000  Level FlightAware ADS-B
Tue 06:42:33 PM 38.0860 -92.6540 37° Northeast 496 571 39,000  Level FlightAware ADS-B
Tue 06:43:29 PM 38.1920 -92.5550 36° Northeast 495 570 39,000  Level FlightAware ADS-B
Tue 06:44:08 PM 38.2630 -92.4870 37° Northeast 498 573 39,000  Level FlightAware ADS-B
Tue 06:44:56 PM 38.3410 -92.4150 36° Northeast 499 574 39,000  Level FlightAware ADS-B
Tue 06:45:37 PM 38.4280 -92.3300 37° Northeast 505 581 39,000  Level FlightAware ADS-B
Tue 06:46:15 PM 38.4890 -92.2740 36° Northeast 505 581 39,000  Level FlightAware ADS-B
Tue 06:47:03 PM 38.5660 -92.2020 36° Northeast 505 581 39,000  Level FlightAware ADS-B
Tue 06:47:41 PM 38.6270 -92.1450 36° Northeast 505 581 39,000  Level FlightAware ADS-B
Tue 06:48:20 PM 38.6900 -92.0870 36° Northeast 505 581 39,000  Level FlightAware ADS-B
Tue 06:49:06 PM 38.7630 -92.0180 36° Northeast 505 581 39,000  Level FlightAware ADS-B
Tue 06:49:46 PM 38.8930 -91.8830 39° Northeast 509 586 39,000  Level FlightAware ADS-B
Tue 06:50:26 PM 38.9720 -91.8060 37° Northeast 511 588 39,000  Level FlightAware ADS-B
Tue 06:51:12 PM 39.0580 -91.7220 37° Northeast 511 588 39,000  Level FlightAware ADS-B
Tue 06:51:54 PM 39.1360 -91.6460 37° Northeast 511 588 39,000  Level FlightAware ADS-B
Tue 06:52:35 PM 39.2090 -91.5750 37° Northeast 510 587 39,000  Level FlightAware ADS-B
Tue 06:53:16 PM 39.2870 -91.4980 37° Northeast 505 581 39,000  Level FlightAware ADS-B
Tue 06:54:14 PM 39.3960 -91.3910 37° Northeast 502 578 39,000  Level FlightAware ADS-B
Tue 06:54:54 PM 39.4720 -91.3160 37° Northeast 497 572 39,000  Level FlightAware ADS-B
Tue 06:55:37 PM 39.5440 -91.2450 37° Northeast 497 572 39,000  Level FlightAware ADS-B
Tue 06:56:12 PM 39.6130 -91.1760 38° Northeast 497 572 39,000  Level FlightAware ADS-B
Tue 06:56:58 PM 39.6980 -91.0900 38° Northeast 498 573 39,000  Level FlightAware ADS-B
Tue 06:57:45 PM 39.7810 -91.0070 38° Northeast 498 573 39,000  Level FlightAware ADS-B
Tue 06:58:26 PM 39.8550 -90.9330 38° Northeast 496 571 39,000  Level FlightAware ADS-B
Tue 06:59:02 PM 39.9220 -90.8650 38° Northeast 496 571 39,000  Level FlightAware ADS-B
Tue 06:59:52 PM 40.0000 -90.7890 37° Northeast 496 571 39,000 -1,043 Level FlightAware ADS-B
Tue 07:00:34 PM 40.0890 -90.6970 38° Northeast 494 568 37,400 -2,488 Descending FlightAware ADS-B
Tue 07:01:14 PM 40.1600 -90.6250 38° Northeast 502 578 35,600 -2,964 Descending FlightAware ADS-B
Tue 07:01:57 PM 40.2360 -90.5470 38° Northeast 516 594 33,300 -2,923 Descending FlightAware ADS-B
Tue 07:02:32 PM 40.3090 -90.4730 38° Northeast 523 602 31,800 -2,458 Descending FlightAware ADS-B
Tue 07:03:20 PM 40.4010 -90.3780 38° Northeast 534 615 29,900 -1,667 Descending FlightAware ADS-B
Tue 07:04:02 PM 40.4820 -90.2960 38° Northeast 506 582 29,300 -1,643 Descending FlightAware ADS-B
Tue 07:04:44 PM 40.5530 -90.2210 39° Northeast 438 504 27,600 -1,696 Descending FlightAware ADS-B
Tue 07:05:34 PM 40.6290 -90.1450 37° Northeast 406 467 26,700 -848 Descending FlightAware ADS-B
Tue 07:06:16 PM 40.7020 -90.1120 19° North 384 442 26,300 -506 Descending FlightAware ADS-B
Tue 07:06:57 PM 40.7710 -90.1220 354° North 356 410 26,000 -825 Descending FlightAware ADS-B
Tue 07:07:36 PM 40.8340 -90.1330 352° North 354 407 25,200 -1,215 Descending FlightAware ADS-B
Tue 07:08:16 PM 40.8980 -90.1420 354° North 351 404 24,400 -1,100 Descending FlightAware ADS-B
Tue 07:08:36 PM 40.9290 -90.1340 11° North 357 411 24,100 -750 Descending FlightAware ADS-B
Tue 07:08:48 PM 40.9460 -90.1230 26° Northeast 368 423 24,000 -214 Descending FlightAware ADS-B
Tue 07:09:04 PM 40.9660 -90.0980 43° Northeast 378 435 24,000  Level FlightAware ADS-B
Tue 07:09:42 PM 40.9980 -90.0170 62° Northeast 384 442 24,000  Level FlightAware ADS-B
Tue 07:10:26 PM 41.0360 -89.9190 63° Northeast 434 499 24,000  Level FlightAware ADS-B
Tue 07:11:02 PM 41.0690 -89.8300 64° Northeast 451 519 24,000  Level FlightAware ADS-B
Tue 07:11:46 PM 41.1100 -89.7200 64° Northeast 454 522 24,000 -196 Level FlightAware ADS-B
Tue 07:12:34 PM 41.1540 -89.6020 64° Northeast 453 521 23,700 -1,023 Descending FlightAware ADS-B
Tue 07:13:14 PM 41.1920 -89.5050 62° Northeast 444 511 22,500 -1,829 Descending FlightAware ADS-B
Tue 07:13:56 PM 41.2340 -89.4050 61° Northeast 435 501 21,200 -1,884 Descending FlightAware ADS-B
Tue 07:14:40 PM 41.2750 -89.3030 62° Northeast 423 487 19,800 -1,875 Descending FlightAware ADS-B
Tue 07:15:16 PM 41.3080 -89.2210 62° Northeast 417 480 18,700 -1,786 Descending FlightAware ADS-B
Tue 07:16:04 PM 41.3520 -89.1120 62° Northeast 412 474 17,300 -1,909 Descending FlightAware ADS-B
Tue 07:16:44 PM 41.3870 -89.0240 62° Northeast 409 471 15,900 -2,049 Descending FlightAware ADS-B
Tue 07:17:26 PM 41.4240 -88.9310 62° Northeast 401 461 14,500 -1,786 Descending FlightAware ADS-B
Tue 07:18:08 PM 41.4550 -88.8540 62° Northeast 395 455 13,400 -1,953 Descending FlightAware ADS-B
Tue 07:18:52 PM 41.4970 -88.7460 63° Northeast 390 449 11,700 -1,643 Descending FlightAware ADS-B
Tue 07:19:32 PM 41.5310 -88.6610 62° Northeast 384 442 11,100 -429 Descending FlightAware ADS-B
Tue 07:20:16 PM 41.5660 -88.5710 63° Northeast 384 442 11,100  Level FlightAware ADS-B
Tue 07:20:56 PM 41.6010 -88.4860 61° Northeast 380 437 11,100  Level FlightAware ADS-B
Tue 07:21:36 PM 41.6410 -88.4120 54° Northeast 371 427 11,100  Level FlightAware ADS-B
Tue 07:22:20 PM 41.6870 -88.3330 52° Northeast 366 421 11,100 -552 Level FlightAware ADS-B
Tue 07:23:03 PM 41.7320 -88.2560 52° Northeast 341 392 10,300 -643 Descending FlightAware ADS-B
Tue 07:23:44 PM 41.7670 -88.1950 52° Northeast 295 339 10,200 -435 Descending FlightAware ADS-B
Tue 07:24:12 PM 41.7900 -88.1560 52° Northeast 287 330 9,800 -1,000 Descending FlightAware ADS-B
Tue 07:24:26 PM 41.8020 -88.1350 53° Northeast 283 326 9,500 -1,171 Descending FlightAware ADS-B
Tue 07:24:53 PM 41.8250 -88.0970 51° Northeast 282 325 9,000 -1,116 Descending FlightAware ADS-B
Tue 07:25:09 PM 41.8370 -88.0740 55° Northeast 282 325 8,700 -1,067 Descending FlightAware ADS-B
Tue 07:25:38 PM 41.8590 -88.0350 53° Northeast 279 321 8,200 -1,024 Descending FlightAware ADS-B
Tue 07:25:50 PM 41.8670 -88.0200 54° Northeast 279 321 8,000 -600 Descending FlightAware ADS-B
Tue 07:26:18 PM 41.8830 -87.9750 64° Northeast 280 322 7,800 -441 Descending FlightAware ADS-B
Tue 07:26:58 PM 41.8840 -87.9060 89° East 278 320 7,500 -369 Descending FlightAware ADS-B
Tue 07:27:23 PM 41.8840 -87.8690 90° East 264 304 7,400 -391 Descending FlightAware ADS-B
Tue 07:27:44 PM 41.8840 -87.8320 90° East 252 290 7,200 -490 Descending FlightAware ADS-B
Tue 07:28:12 PM 41.8840 -87.7890 90° East 251 289 7,000 -667 Descending FlightAware ADS-B
Tue 07:28:20 PM 41.8840 -87.7760 90° East 251 289 6,800 -1,231 Descending FlightAware ADS-B
Tue 07:28:51 PM 41.8840 -87.7280 90° East 254 292 6,200 -1,200 Descending FlightAware ADS-B
Tue 07:29:05 PM 41.8840 -87.7060 90° East 256 295 5,900 -955 Descending FlightAware ADS-B
Tue 07:29:35 PM 41.8900 -87.6620 80° East 230 265 5,500 -857 Descending FlightAware ADS-B
Tue 07:29:47 PM 41.8990 -87.6510 42° Northeast 212 244 5,300 -1,000 Descending FlightAware ADS-B
Tue 07:29:59 PM 41.9110 -87.6470 14° North 198 228 5,100 -845 Descending FlightAware ADS-B
Tue 07:30:58 PM 41.9570 -87.6620 346° North 179 206 4,300 -929 Descending FlightAware ADS-B
Tue 07:31:23 PM 41.9730 -87.6760 327° Northwest 169 194 3,800 -1,158 Descending FlightAware ADS-B
Tue 07:31:55 PM 41.9680 -87.7090 258° West 164 189 3,200 -1,043 Descending FlightAware ADS-B
Tue 07:32:09 PM 41.9690 -87.7240 275° West 165 190 3,000 -698 Descending FlightAware ADS-B
Tue 07:32:38 PM 41.9690 -87.7480 270° West 161 185 2,700 -941 Descending FlightAware ADS-B
Tue 07:33:00 PM 41.9700 -87.7730 273° West 149 171 2,200 -906 Descending FlightAware ADS-B
Tue 07:33:31 PM 41.9690 -87.8010 267° West 142 163 1,900 -667 Descending FlightAware ADS-B
Tue 07:33:45 PM 41.9690 -87.8130 270° West 143 165 1,700 -714 Descending FlightAware ADS-B
Tue 07:34:13 PM 41.9690 -87.8390 270° West 143 165 1,400 -652 Descending FlightAware ADS-B
Tue 07:34:31 PM 41.9690 -87.8540 270° West 142 163 1,200 -698 Descending FlightAware ADS-B
Tue 07:34:56 PM 41.9690 -87.8760 270° West 143 165 900 -720 Descending FlightAware ADS-B

Login

Don't have an account? Register now (free) for customized features, flight alerts, and more!